Airfield :
LOGIN :

Register | Disclaimer

   EN    FR    IT 

 










Legend :    VFR   Marginal VFR   IFR   Intensive IFR   Very Intensive IFR
Visi :
Ceiling :
>= 8 km
>= 3000ft
5 to 8 km
1000 to 3000 ft
1500m to 5 km
500 to 1000 ft
800 to 1500m
200 to 500 ft
< 800m
< 200 ft
Symbols :   Thunderstorms  Fog  Heavy snow  Heavy precipitations  Wind > 20 kt
SIGMETs :     Misc.  Thunderstorms  Icing  Turbulence  Mountain Waves  Volcanic Ashes






- Airport Elevation : 682 ft
- IATA code : VTB


UMII - Vitebsk

CURRENT METAR :
  • 300738Z 01008G12MPS 3800 -SHSN BLSN BKN008 BKN019CB M03/M06 Q1012 R05/450550 TEMPO 2000 SHSN BKN005

EXPIRED METARs :
  • 300700Z 01007G11MPS 8000 -SHSN BKN008 BKN019CB M03/M06 Q1012 R05/450550 TEMPO 2000 SHSN BKN005
  • 300640Z 01008G12MPS 6000 -SHSN BKN007 BKN019CB M04/M06 Q1011 R05/450550 TEMPO 2000 SHSN BKN005
  • 300600Z 02006G09MPS 7000 -SHSN BKN006 BKN019CB M04/M06 Q1011 R05/450550 TEMPO 2000 SHSN BKN005 RMK QBB180
  • 300550Z 02006G09MPS 6000 -SHSN BKN006 BKN018CB M04/M07 Q1011 TEMPO 2000 SHSN BKN005 RMK QBB180
  • 300500Z 01007G10MPS 2400 -SHSN BLSN BKN006 OVC018CB M04/M07 Q1011 TEMPO 1900 SHSN BKN005 RMK QBB180

TAF TAF UMII
Valid from the 30 at 05:00 until the 30 at 15:00 UTC


300433Z 3005/3015 01007G12MPS 3000 -SN BLSN BR BKN006
TEMPO 3005/3015 VRB14MPS 0500 +SHSN BLSN BKN003 BKN010CB



MET'MAP, your aeronautical weather chart ! - Copyright ORBIFLY December 2007 - Disclaimer

ORBIFLY MET'MAP TEAM :

Programming & Development : Alexandra Zaïnal
Concept & original design : Baudouin d'Aumeries
Assistance for programming : Marc-Olivier Méhu
Technical & hardware support : Manuel Goepfert

Contact : metmap@orbifly.com




SOURCES & CREDITS :

   NOAA